createdAt,value
2022-09-16T00:01:01.482Z,16.33
2022-09-16T00:03:29.229Z,16.32
2022-09-16T00:05:56.919Z,16.32
2022-09-16T00:08:24.615Z,16.28
2022-09-16T00:10:52.405Z,16.26
2022-09-16T00:13:20.517Z,16.23
2022-09-16T00:15:51.984Z,16.13
2022-09-16T00:18:21.508Z,16.12
2022-09-16T00:20:51.938Z,16.19
2022-09-16T00:23:20.433Z,16.27
2022-09-16T00:25:54.938Z,16.31
2022-09-16T00:28:24.176Z,16.31
2022-09-16T00:30:52.106Z,16.33
2022-09-16T00:33:21.037Z,16.32
2022-09-16T00:35:49.099Z,16.31
2022-09-16T00:38:16.815Z,16.34
2022-09-16T00:40:46.697Z,16.29
2022-09-16T00:43:16.324Z,16.26
2022-09-16T00:45:47.202Z,16.22
2022-09-16T00:48:22.332Z,16.14
2022-09-16T00:50:55.551Z,16.09
2022-09-16T00:53:28.871Z,16.02
2022-09-16T00:56:00.849Z,15.96
2022-09-16T00:58:42.299Z,15.91
2022-09-16T01:01:10.136Z,15.90
2022-09-16T01:04:01.193Z,15.96
2022-09-16T01:06:30.290Z,15.95
2022-09-16T01:08:58.863Z,15.93
2022-09-16T01:11:26.662Z,15.97
2022-09-16T01:13:54.943Z,15.92
2022-09-16T01:16:30.246Z,15.92
2022-09-16T01:19:23.813Z,15.90
2022-09-16T01:22:26.864Z,15.89
2022-09-16T01:25:18.610Z,15.87
2022-09-16T01:28:14.155Z,15.87
2022-09-16T01:30:51.623Z,15.83
2022-09-16T01:33:32.733Z,15.87
2022-09-16T01:36:10.353Z,15.90
2022-09-16T01:39:03.660Z,16.00
2022-09-16T01:41:59.027Z,16.03
2022-09-16T01:45:08.112Z,16.06
2022-09-16T01:47:35.662Z,16.20
2022-09-16T01:50:26.507Z,16.17
2022-09-16T01:53:21.684Z,16.15
2022-09-16T01:55:55.613Z,16.18
2022-09-16T01:58:29.306Z,16.17
2022-09-16T02:01:03.561Z,16.16
2022-09-16T02:03:35.683Z,16.18
2022-09-16T02:06:09.538Z,16.17
2022-09-16T02:08:50.879Z,16.18
2022-09-16T02:11:20.062Z,16.18
2022-09-16T02:14:32.401Z,16.19
2022-09-16T02:17:05.297Z,16.19
2022-09-16T02:19:38.864Z,16.18
2022-09-16T02:22:12.530Z,16.20
2022-09-16T02:24:42.626Z,16.19
2022-09-16T02:27:20.904Z,16.22
2022-09-16T02:29:58.591Z,16.23
2022-09-16T02:32:30.174Z,16.26
2022-09-16T02:35:00.152Z,16.24
2022-09-16T02:37:53.347Z,16.19
2022-09-16T02:40:26.197Z,16.14
2022-09-16T02:42:54.395Z,16.11
2022-09-16T02:45:27.393Z,16.09
2022-09-16T02:48:21.418Z,16.02
2022-09-16T02:50:56.057Z,15.98
2022-09-16T02:54:01.208Z,15.99
2022-09-16T02:56:33.731Z,15.93
2022-09-16T02:59:02.281Z,15.90
2022-09-16T03:01:34.739Z,15.90
2022-09-16T03:04:02.661Z,15.86
2022-09-16T03:06:30.838Z,15.82
2022-09-16T03:09:02.066Z,15.82
2022-09-16T03:11:48.657Z,15.84
2022-09-16T03:14:25.284Z,15.88
2022-09-16T03:17:19.495Z,15.84
2022-09-16T03:19:47.128Z,15.82
2022-09-16T03:22:27.999Z,15.81
2022-09-16T03:25:20.377Z,15.82
2022-09-16T03:28:09.120Z,15.80
2022-09-16T03:30:43.804Z,15.80
2022-09-16T03:33:24.716Z,15.77
2022-09-16T03:35:55.489Z,15.79
2022-09-16T03:38:23.703Z,15.76
2022-09-16T03:40:51.918Z,15.76
2022-09-16T03:43:19.701Z,15.78
2022-09-16T03:45:47.431Z,15.74
2022-09-16T03:48:15.382Z,15.73
2022-09-16T03:50:43.058Z,15.71
2022-09-16T03:53:10.901Z,15.69
2022-09-16T03:55:38.559Z,15.69
2022-09-16T03:58:06.216Z,15.67
2022-09-16T04:00:34.195Z,15.69
2022-09-16T04:03:02.433Z,15.66
2022-09-16T04:05:30.329Z,15.70
2022-09-16T04:07:58.005Z,15.70
2022-09-16T04:10:25.701Z,15.72
2022-09-16T04:12:58.698Z,15.71
2022-09-16T04:15:29.496Z,15.66
2022-09-16T04:17:57.466Z,15.61
2022-09-16T04:20:25.114Z,15.60
2022-09-16T04:22:52.791Z,15.60
2022-09-16T04:25:20.429Z,15.60
2022-09-16T04:27:48.063Z,15.58
2022-09-16T04:30:15.781Z,15.54
2022-09-16T04:32:43.450Z,15.49
2022-09-16T04:35:11.109Z,15.46
2022-09-16T04:37:38.692Z,15.44
2022-09-16T04:40:06.828Z,15.44
2022-09-16T04:42:34.494Z,15.50
2022-09-16T04:45:02.151Z,15.47
2022-09-16T04:47:30.514Z,15.46
2022-09-16T04:49:58.210Z,15.45
2022-09-16T04:52:25.986Z,15.48
2022-09-16T04:54:53.597Z,15.45
2022-09-16T04:57:21.233Z,15.46
2022-09-16T04:59:48.876Z,15.45
2022-09-16T05:02:16.449Z,15.46
2022-09-16T05:04:44.050Z,15.47
2022-09-16T05:07:11.842Z,15.51
2022-09-16T05:09:39.439Z,15.53
2022-09-16T05:12:07.817Z,15.52
2022-09-16T05:14:35.584Z,15.53
2022-09-16T05:17:03.233Z,15.54
2022-09-16T05:19:30.853Z,15.54
2022-09-16T05:21:58.448Z,15.61
2022-09-16T05:24:26.104Z,15.66
2022-09-16T05:26:53.762Z,15.67
2022-09-16T05:29:21.546Z,15.70
2022-09-16T05:31:49.403Z,15.71
2022-09-16T05:34:20.488Z,15.71
2022-09-16T05:36:50.532Z,15.73
2022-09-16T05:39:24.215Z,15.76
2022-09-16T05:41:56.497Z,15.80
2022-09-16T05:44:24.894Z,15.76
2022-09-16T05:46:53.354Z,15.72
2022-09-16T05:49:21.825Z,15.66
2022-09-16T05:51:50.659Z,15.64
2022-09-16T05:54:22.055Z,15.67
2022-09-16T05:56:49.698Z,15.69
2022-09-16T05:59:18.445Z,15.69
2022-09-16T06:01:46.975Z,15.70
2022-09-16T06:04:16.248Z,15.72
2022-09-16T06:06:46.139Z,15.74
2022-09-16T06:09:20.380Z,15.76
2022-09-16T06:11:51.660Z,15.73
2022-09-16T06:14:20.547Z,15.73
2022-09-16T06:16:48.193Z,15.72
2022-09-16T06:19:18.319Z,15.76
2022-09-16T06:21:47.435Z,15.75
2022-09-16T06:24:16.978Z,15.72
2022-09-16T06:26:46.331Z,15.74
2022-09-16T06:29:15.050Z,15.73
2022-09-16T06:31:43.336Z,15.76
2022-09-16T06:34:16.650Z,15.85
2022-09-16T06:36:45.541Z,15.97
2022-09-16T06:39:15.434Z,16.03
2022-09-16T06:41:43.141Z,15.99
2022-09-16T06:44:10.837Z,15.99
2022-09-16T06:46:38.678Z,15.99
2022-09-16T06:49:06.829Z,15.96
2022-09-16T06:51:35.663Z,15.92
2022-09-16T06:54:08.349Z,15.87
2022-09-16T06:56:38.689Z,15.79
2022-09-16T06:59:06.618Z,15.75
2022-09-16T07:01:34.944Z,15.72
2022-09-16T07:04:08.478Z,15.69
2022-09-16T07:07:08.740Z,15.67
2022-09-16T07:09:24.297Z,15.55
2022-09-16T07:11:51.970Z,15.52
2022-09-16T07:14:19.650Z,15.46
2022-09-16T07:16:47.715Z,15.45
2022-09-16T07:19:15.400Z,15.49
2022-09-16T07:21:43.006Z,15.53
2022-09-16T07:24:13.673Z,15.59
2022-09-16T07:26:43.267Z,15.62
2022-09-16T07:29:16.900Z,15.62
2022-09-16T07:31:45.087Z,15.70
2022-09-16T07:34:14.086Z,15.76
2022-09-16T07:36:47.962Z,15.77
2022-09-16T07:39:18.094Z,15.82
2022-09-16T07:41:47.561Z,15.84
2022-09-16T07:44:17.443Z,15.87
2022-09-16T07:46:45.816Z,15.88
2022-09-16T07:49:15.761Z,15.89
2022-09-16T07:51:44.293Z,15.89
2022-09-16T07:54:14.904Z,15.83
2022-09-16T07:56:43.993Z,15.86
2022-09-16T07:59:17.735Z,15.83
2022-09-16T08:01:47.088Z,15.83
2022-09-16T08:04:14.869Z,15.86
2022-09-16T08:06:42.624Z,15.88
2022-09-16T08:09:34.222Z,15.92
2022-09-16T08:11:58.034Z,15.96
2022-09-16T08:14:25.831Z,15.97
2022-09-16T08:16:53.554Z,15.93
2022-09-16T08:19:22.012Z,15.95
2022-09-16T08:21:49.862Z,16.02
2022-09-16T08:24:17.611Z,16.03
2022-09-16T08:26:45.474Z,16.06
2022-09-16T08:29:13.430Z,16.11
2022-09-16T08:31:41.368Z,16.14
2022-09-16T08:34:08.981Z,16.16
2022-09-16T08:36:36.738Z,16.18
2022-09-16T08:39:04.906Z,16.24
2022-09-16T08:41:44.512Z,16.24
2022-09-16T08:44:21.255Z,16.37
2022-09-16T08:47:02.786Z,16.41
2022-09-16T08:49:46.471Z,16.44
2022-09-16T08:52:35.296Z,16.49
2022-09-16T08:55:17.213Z,16.51
2022-09-16T08:58:08.315Z,16.54
2022-09-16T09:00:36.058Z,16.58
2022-09-16T09:03:09.417Z,16.70
2022-09-16T09:05:55.079Z,16.73
2022-09-16T09:08:34.563Z,16.74
2022-09-16T09:11:27.174Z,16.72
2022-09-16T09:14:16.453Z,16.77
2022-09-16T09:16:48.394Z,16.79
2022-09-16T09:19:29.576Z,16.83
2022-09-16T09:21:57.112Z,16.88
2022-09-16T09:25:03.401Z,16.99
2022-09-16T09:28:17.873Z,17.02
2022-09-16T09:30:57.867Z,17.06
2022-09-16T09:33:47.331Z,17.09
2022-09-16T09:36:33.480Z,17.11
2022-09-16T09:39:26.931Z,17.09
2022-09-16T09:42:10.666Z,17.12
2022-09-16T09:44:49.581Z,17.22
2022-09-16T09:48:13.210Z,17.26
2022-09-16T09:50:46.803Z,17.30
2022-09-16T09:53:20.173Z,17.44
2022-09-16T09:55:47.861Z,17.47
2022-09-16T09:58:40.589Z,17.49
2022-09-16T10:01:09.522Z,17.47
2022-09-16T10:03:39.076Z,17.50
2022-09-16T10:06:07.292Z,17.52
2022-09-16T10:08:47.260Z,17.51
2022-09-16T10:11:24.222Z,17.54
2022-09-16T10:13:54.757Z,17.53
2022-09-16T10:16:26.961Z,17.52
2022-09-16T10:19:03.349Z,17.53
2022-09-16T10:22:11.177Z,17.65
2022-09-16T10:24:41.580Z,17.80
2022-09-16T10:27:26.794Z,17.96
2022-09-16T10:30:24.135Z,18.11
2022-09-16T10:33:01.237Z,17.80
2022-09-16T10:35:31.316Z,17.65
2022-09-16T10:38:02.652Z,17.58
2022-09-16T10:40:31.973Z,17.51
2022-09-16T10:43:15.313Z,17.26
2022-09-16T10:45:52.022Z,17.14
2022-09-16T10:48:23.038Z,17.03
2022-09-16T10:51:01.462Z,16.95
2022-09-16T10:53:40.954Z,16.84
2022-09-16T10:56:23.338Z,16.72
2022-09-16T10:59:01.995Z,16.66
2022-09-16T11:01:48.250Z,16.56
2022-09-16T11:04:25.591Z,16.46
2022-09-16T11:07:02.051Z,16.40
2022-09-16T11:09:54.088Z,16.36
2022-09-16T11:12:52.307Z,16.32
2022-09-16T11:15:38.182Z,16.26
2022-09-16T11:18:16.263Z,16.17
2022-09-16T11:20:52.223Z,16.15
2022-09-16T11:23:31.456Z,16.05
2022-09-16T11:26:16.605Z,16.02
2022-09-16T11:29:07.917Z,15.95
2022-09-16T11:31:55.432Z,15.88
2022-09-16T11:34:48.732Z,15.87
2022-09-16T11:37:35.249Z,15.85
2022-09-16T11:40:09.058Z,15.85
2022-09-16T11:42:43.503Z,15.80
2022-09-16T11:45:48.888Z,15.71
2022-09-16T11:48:34.872Z,15.67
2022-09-16T11:51:06.712Z,15.59
2022-09-16T11:54:02.448Z,15.51
2022-09-16T11:56:38.190Z,15.33
2022-09-16T11:59:46.298Z,15.13
2022-09-16T12:02:36.665Z,14.91
2022-09-16T12:05:20.533Z,14.73
2022-09-16T12:08:27.023Z,14.64
2022-09-16T12:10:59.823Z,14.56
2022-09-16T12:13:38.382Z,14.48
2022-09-16T12:16:12.847Z,14.45
2022-09-16T12:18:45.520Z,14.38
2022-09-16T12:21:22.366Z,14.40
2022-09-16T12:24:02.984Z,14.37
2022-09-16T12:26:42.423Z,14.40
2022-09-16T12:29:21.216Z,14.43
2022-09-16T12:32:01.950Z,14.45
2022-09-16T12:34:40.831Z,14.44
2022-09-16T12:37:11.222Z,14.49
2022-09-16T12:39:39.568Z,14.55
2022-09-16T12:42:21.828Z,14.57
2022-09-16T12:45:17.024Z,14.61
2022-09-16T12:48:07.992Z,14.64
2022-09-16T12:50:44.459Z,14.70
2022-09-16T12:53:34.146Z,14.71
2022-09-16T12:56:11.415Z,14.71
2022-09-16T12:58:48.173Z,14.72
2022-09-16T13:01:26.772Z,14.75
2022-09-16T13:04:11.119Z,14.83
2022-09-16T13:06:46.505Z,14.93
2022-09-16T13:09:17.368Z,14.93
2022-09-16T13:14:52.672Z,14.99
2022-09-16T13:17:31.768Z,15.03
2022-09-16T13:20:21.093Z,15.12
2022-09-16T13:23:12.281Z,15.14
2022-09-16T13:26:00.727Z,15.15
2022-09-16T13:28:37.330Z,15.19
2022-09-16T13:31:14.274Z,15.21
2022-09-16T13:33:58.738Z,15.28
2022-09-16T13:36:30.854Z,15.40
2022-09-16T13:38:58.581Z,15.46
2022-09-16T13:41:35.395Z,15.60
2022-09-16T13:44:23.772Z,15.67
2022-09-16T13:46:51.591Z,15.68
2022-09-16T13:49:26.677Z,15.73
2022-09-16T13:51:55.014Z,15.81
2022-09-16T13:54:53.567Z,15.83
2022-09-16T13:57:39.565Z,15.82
2022-09-16T14:00:36.342Z,15.81
2022-09-16T14:03:28.457Z,15.85
2022-09-16T14:06:34.240Z,15.88
2022-09-16T14:09:17.159Z,15.90
2022-09-16T14:11:58.370Z,15.89
2022-09-16T14:14:47.273Z,15.85
2022-09-16T14:17:33.071Z,15.79
2022-09-16T14:20:02.158Z,15.71
2022-09-16T14:22:31.364Z,15.66
2022-09-16T14:25:07.185Z,15.67
2022-09-16T14:27:40.913Z,15.68
2022-09-16T14:30:18.250Z,15.68
2022-09-16T14:32:48.168Z,15.69
2022-09-16T14:35:23.423Z,15.67
2022-09-16T14:37:55.250Z,15.68
2022-09-16T14:40:26.338Z,15.62
2022-09-16T14:43:09.380Z,15.62
2022-09-16T14:45:39.315Z,15.60
2022-09-16T14:48:09.915Z,15.59
2022-09-16T14:50:40.995Z,15.60
2022-09-16T14:53:35.483Z,15.57
2022-09-16T14:56:05.214Z,15.60
2022-09-16T14:58:34.881Z,15.67
2022-09-16T15:01:12.479Z,15.68
2022-09-16T15:03:43.693Z,15.68
2022-09-16T15:06:17.351Z,15.67
2022-09-16T15:08:54.022Z,15.69
2022-09-16T15:11:47.111Z,15.73
2022-09-16T15:14:15.044Z,15.77
2022-09-16T15:16:48.061Z,15.81
2022-09-16T15:19:29.677Z,15.74
2022-09-16T15:21:58.310Z,15.69
2022-09-16T15:24:29.958Z,15.66
2022-09-16T15:26:59.443Z,15.61
2022-09-16T15:29:30.959Z,15.64
2022-09-16T15:32:22.805Z,15.58
2022-09-16T15:35:22.059Z,15.54
2022-09-16T15:37:49.829Z,15.48
2022-09-16T15:40:28.150Z,15.52
2022-09-16T15:43:05.578Z,15.49
2022-09-16T15:45:33.360Z,15.47
2022-09-16T15:48:19.208Z,15.44
2022-09-16T15:50:56.952Z,15.44
2022-09-16T15:53:30.756Z,15.46
2022-09-16T15:56:05.842Z,15.43
2022-09-16T15:58:33.477Z,15.39
2022-09-16T16:01:17.779Z,15.33
2022-09-16T16:03:45.389Z,15.32
2022-09-16T16:06:13.547Z,15.29
2022-09-16T16:08:53.291Z,15.27
2022-09-16T16:11:23.285Z,15.23
2022-09-16T16:13:56.556Z,15.19
2022-09-16T16:16:27.474Z,15.15
2022-09-16T16:18:55.748Z,15.17
2022-09-16T16:21:24.032Z,15.15
2022-09-16T16:23:51.689Z,15.14
2022-09-16T16:26:19.400Z,15.10
2022-09-16T16:28:47.167Z,15.13
2022-09-16T16:31:19.476Z,15.11
2022-09-16T16:33:48.786Z,15.09
2022-09-16T16:36:18.361Z,15.07
2022-09-16T16:38:47.390Z,15.02
2022-09-16T16:41:25.987Z,15.05
2022-09-16T16:43:53.695Z,15.03
2022-09-16T16:46:21.572Z,15.05
2022-09-16T16:48:49.207Z,15.06
2022-09-16T16:51:16.998Z,15.04
2022-09-16T16:53:49.499Z,15.07
2022-09-16T16:56:17.234Z,15.10
2022-09-16T16:58:44.884Z,15.11
2022-09-16T17:01:20.181Z,15.05
2022-09-16T17:03:51.848Z,15.04
2022-09-16T17:06:19.811Z,15.02
2022-09-16T17:08:47.455Z,15.01
2022-09-16T17:11:21.080Z,14.96
2022-09-16T17:13:52.458Z,14.97
2022-09-16T17:16:23.554Z,14.96
2022-09-16T17:18:52.040Z,14.99
2022-09-16T17:21:28.495Z,14.94
2022-09-16T17:23:56.869Z,14.91
2022-09-16T17:26:25.259Z,14.91
2022-09-16T17:28:54.264Z,14.92
2022-09-16T17:31:27.829Z,14.88
2022-09-16T17:33:57.501Z,14.83
2022-09-16T17:36:27.357Z,14.81
2022-09-16T17:38:59.944Z,14.78
2022-09-16T17:41:28.535Z,14.79
2022-09-16T17:43:57.621Z,14.82
2022-09-16T17:46:28.409Z,14.76
2022-09-16T17:49:09.556Z,14.82
2022-09-16T17:51:37.271Z,14.82
2022-09-16T17:54:05.428Z,14.78
2022-09-16T17:56:33.128Z,14.74
2022-09-16T17:59:00.820Z,14.67
2022-09-16T18:01:28.970Z,14.60
2022-09-16T18:03:57.807Z,14.57
2022-09-16T18:06:29.459Z,14.56
2022-09-16T18:08:57.226Z,14.50
2022-09-16T18:11:25.381Z,14.45
2022-09-16T18:14:00.420Z,14.42
2022-09-16T18:16:29.410Z,14.36
2022-09-16T18:19:00.437Z,14.31
2022-09-16T18:21:29.239Z,14.28
2022-09-16T18:24:03.427Z,14.24
2022-09-16T18:26:32.478Z,14.21
2022-09-16T18:29:10.123Z,14.17
2022-09-16T18:31:46.898Z,14.14
2022-09-16T18:34:15.393Z,14.15
2022-09-16T18:36:43.529Z,14.11
2022-09-16T18:39:15.381Z,14.08
2022-09-16T18:41:45.425Z,14.03
2022-09-16T18:44:18.882Z,14.04
2022-09-16T18:46:47.225Z,14.00
2022-09-16T18:49:17.067Z,14.00
2022-09-16T18:51:50.816Z,13.95
2022-09-16T18:54:29.690Z,13.91
2022-09-16T18:57:01.996Z,13.89
2022-09-16T18:59:35.166Z,13.86
2022-09-16T19:02:04.746Z,13.79
2022-09-16T19:04:37.925Z,13.73
2022-09-16T19:07:08.836Z,13.68
2022-09-16T19:09:39.319Z,13.61
2022-09-16T19:12:12.435Z,13.57
2022-09-16T19:14:41.990Z,13.50
2022-09-16T19:17:10.190Z,13.40
2022-09-16T19:19:37.853Z,13.38
2022-09-16T19:22:06.769Z,13.35
2022-09-16T19:24:35.206Z,13.35
2022-09-16T19:27:02.981Z,13.33
2022-09-16T19:29:30.631Z,13.29
2022-09-16T19:31:58.525Z,13.30
2022-09-16T19:34:26.321Z,13.26
2022-09-16T19:36:57.320Z,13.25
2022-09-16T19:39:25.824Z,13.24
2022-09-16T19:41:53.726Z,13.21
2022-09-16T19:44:21.473Z,13.18
2022-09-16T19:46:50.392Z,13.21
2022-09-16T19:49:21.722Z,13.21
2022-09-16T19:51:50.858Z,13.22
2022-09-16T19:54:18.978Z,13.20
2022-09-16T19:56:50.385Z,13.20
2022-09-16T19:59:18.265Z,13.20
2022-09-16T20:01:46.030Z,13.21
2022-09-16T20:04:13.841Z,13.24
2022-09-16T20:06:43.062Z,13.26
2022-09-16T20:09:12.870Z,13.23
2022-09-16T20:11:43.437Z,13.22
2022-09-16T20:14:20.186Z,13.24
2022-09-16T20:16:49.338Z,13.22
2022-09-16T20:19:18.966Z,13.17
2022-09-16T20:21:46.753Z,13.23
2022-09-16T20:24:16.987Z,13.24
2022-09-16T20:26:44.929Z,13.26
2022-09-16T20:29:12.593Z,13.35
2022-09-16T20:31:40.404Z,13.36
2022-09-16T20:34:08.141Z,13.43
2022-09-16T20:36:38.515Z,13.45
2022-09-16T20:39:07.259Z,13.48
2022-09-16T20:41:36.276Z,13.52
2022-09-16T20:44:05.685Z,13.60
2022-09-16T20:46:39.805Z,13.62
2022-09-16T20:49:11.543Z,13.59
2022-09-16T20:51:39.449Z,13.52
2022-09-16T20:54:09.948Z,13.49
2022-09-16T20:56:40.601Z,13.45
2022-09-16T20:59:10.159Z,13.49
2022-09-16T21:01:39.671Z,13.37
2022-09-16T21:04:12.316Z,13.39
2022-09-16T21:06:40.135Z,13.39
2022-09-16T21:09:10.581Z,13.42
2022-09-16T21:11:45.019Z,13.45
2022-09-16T21:14:16.642Z,13.42
2022-09-16T21:16:46.463Z,13.34
2022-09-16T21:19:14.916Z,13.39
2022-09-16T21:21:49.536Z,13.37
2022-09-16T21:24:17.567Z,13.29
2022-09-16T21:26:46.457Z,13.18
2022-09-16T21:29:21.885Z,13.11
2022-09-16T21:31:49.984Z,13.05
2022-09-16T21:34:20.444Z,13.01
2022-09-16T21:36:49.216Z,13.02
2022-09-16T21:39:18.247Z,13.01
2022-09-16T21:41:47.538Z,12.95
2022-09-16T21:44:15.943Z,12.96
2022-09-16T21:46:46.181Z,12.98
2022-09-16T21:49:23.774Z,12.99
2022-09-16T21:51:53.951Z,12.96
2022-09-16T21:54:22.311Z,12.96
2022-09-16T21:56:51.322Z,13.05
2022-09-16T21:59:22.775Z,13.06
2022-09-16T22:01:52.074Z,13.05
2022-09-16T22:04:22.799Z,13.06
2022-09-16T22:06:52.189Z,13.03
2022-09-16T22:09:19.915Z,13.00
2022-09-16T22:11:47.981Z,13.04
2022-09-16T22:14:15.818Z,13.06
2022-09-16T22:16:43.468Z,13.02
2022-09-16T22:19:14.739Z,13.06
2022-09-16T22:21:44.951Z,13.02
2022-09-16T22:24:13.595Z,13.05
2022-09-16T22:26:41.576Z,13.02
2022-09-16T22:29:10.465Z,12.97
2022-09-16T22:31:40.020Z,12.96
2022-09-16T22:34:08.484Z,12.94
2022-09-16T22:36:37.432Z,12.91
2022-09-16T22:39:08.687Z,12.80
2022-09-16T22:41:36.598Z,12.73
2022-09-16T22:44:04.947Z,12.68
2022-09-16T22:46:40.770Z,12.61
2022-09-16T22:49:08.541Z,12.57
2022-09-16T22:51:36.128Z,12.57
2022-09-16T22:54:03.794Z,12.54
2022-09-16T22:56:34.422Z,12.53
2022-09-16T22:59:03.797Z,12.53
2022-09-16T23:01:37.765Z,12.53
2022-09-16T23:04:07.362Z,12.47
2022-09-16T23:06:35.832Z,12.46
2022-09-16T23:09:05.000Z,12.42
2022-09-16T23:11:34.990Z,12.41
2022-09-16T23:14:03.042Z,12.35
2022-09-16T23:16:32.983Z,12.32
2022-09-16T23:19:03.221Z,12.27
2022-09-16T23:21:32.060Z,12.23
2022-09-16T23:24:02.200Z,12.21
2022-09-16T23:26:35.916Z,12.19
2022-09-16T23:29:06.275Z,12.13
2022-09-16T23:31:36.684Z,12.13
2022-09-16T23:34:08.849Z,12.04
2022-09-16T23:36:38.650Z,12.08
2022-09-16T23:39:07.851Z,12.09
2022-09-16T23:41:36.340Z,12.04
2022-09-16T23:44:04.374Z,12.06
2022-09-16T23:46:32.152Z,12.06
2022-09-16T23:49:00.463Z,12.05
2022-09-16T23:51:29.667Z,12.04
2022-09-16T23:53:58.447Z,12.01
2022-09-16T23:56:27.015Z,11.96
2022-09-16T23:58:55.139Z,11.96
